createdAt,value
2018-09-12T00:00:08.264Z,41.7
2018-09-12T00:02:05.950Z,41.7
2018-09-12T00:04:05.639Z,41.7
2018-09-12T00:06:10.344Z,41.8
2018-09-12T00:08:05.105Z,41.8
2018-09-12T00:10:05.809Z,41.8
2018-09-12T00:12:05.480Z,41.8
2018-09-12T00:14:07.695Z,41.9
2018-09-12T00:16:05.364Z,41.9
2018-09-12T00:18:05.338Z,41.9
2018-09-12T00:20:05.073Z,41.9
2018-09-12T00:22:08.310Z,42
2018-09-12T00:24:06.072Z,42
2018-09-12T00:26:05.730Z,42
2018-09-12T00:28:05.404Z,42
2018-09-12T00:30:10.129Z,42
2018-09-12T00:32:05.817Z,42
2018-09-12T00:34:05.965Z,41.8
2018-09-12T00:36:05.756Z,41.7
2018-09-12T00:38:04.982Z,42
2018-09-12T00:40:05.669Z,41.9
2018-09-12T00:42:10.487Z,41.9
2018-09-12T00:44:05.167Z,41.8
2018-09-12T00:46:05.406Z,41.9
2018-09-12T00:48:05.648Z,41.9
2018-09-12T00:50:05.329Z,41.9
2018-09-12T00:52:07.586Z,42
2018-09-12T00:54:05.309Z,41.9
2018-09-12T00:56:05.999Z,41.9
2018-09-12T00:58:05.703Z,41.9
2018-09-12T01:00:12.986Z,41.9
2018-09-12T01:02:05.191Z,41.7
2018-09-12T01:04:05.872Z,41.7
2018-09-12T01:06:05.588Z,41.8
2018-09-12T01:08:05.418Z,41.7
2018-09-12T01:10:05.174Z,41.8
2018-09-12T01:12:05.875Z,41.8
2018-09-12T01:14:05.114Z,41.8
2018-09-12T01:16:10.800Z,41.8
2018-09-12T01:18:05.133Z,41.8
2018-09-12T01:20:05.866Z,41.8
2018-09-12T01:22:05.121Z,41.8
2018-09-12T01:24:05.806Z,41.9
2018-09-12T01:26:05.617Z,41.9
2018-09-12T01:28:05.904Z,41.9
2018-09-12T01:30:05.764Z,42
2018-09-12T01:32:05.444Z,41.9
2018-09-12T01:34:05.126Z,42
2018-09-12T01:36:05.896Z,42
2018-09-12T01:38:05.581Z,42
2018-09-12T01:40:08.383Z,41.9
2018-09-12T01:42:10.137Z,42
2018-09-12T01:44:05.827Z,41.9
2018-09-12T01:46:07.591Z,42.1
2018-09-12T01:48:05.274Z,41.9
2018-09-12T01:50:05.980Z,42.1
2018-09-12T01:52:05.692Z,41.9
2018-09-12T01:54:05.908Z,41.9
2018-09-12T01:56:08.116Z,41.9
2018-09-12T01:58:10.972Z,41.6
2018-09-12T02:00:05.722Z,41.9
2018-09-12T02:02:13.032Z,41.9
2018-09-12T02:04:05.714Z,41.9
2018-09-12T02:06:05.379Z,41.9
2018-09-12T02:08:07.620Z,41.9
2018-09-12T02:10:05.279Z,41.9
2018-09-12T02:12:06.074Z,42
2018-09-12T02:14:05.330Z,41.9
2018-09-12T02:16:10.082Z,41.8
2018-09-12T02:18:08.502Z,41.7
2018-09-12T02:20:05.203Z,41.7
2018-09-12T02:22:05.892Z,42
2018-09-12T02:24:05.625Z,41.7
2018-09-12T02:26:05.885Z,42
2018-09-12T02:28:05.583Z,41.7
2018-09-12T02:30:05.278Z,41.7
2018-09-12T02:32:08.528Z,41.8
2018-09-12T02:34:05.825Z,41.8
2018-09-12T02:36:05.734Z,41.8
2018-09-12T02:38:07.974Z,41.8
2018-09-12T02:40:05.679Z,41.8
2018-09-12T02:42:05.477Z,41.8
2018-09-12T02:44:05.253Z,41.8
2018-09-12T02:46:08.625Z,41.8
2018-09-12T02:48:08.527Z,41.8
2018-09-12T02:50:05.237Z,41.8
2018-09-12T02:52:08.009Z,41.8
2018-09-12T02:54:08.261Z,41.8
2018-09-12T02:56:08.698Z,41.8
2018-09-12T02:58:05.915Z,41.8
2018-09-12T03:00:10.717Z,41.8
2018-09-12T03:02:05.436Z,41.8
2018-09-12T03:04:05.128Z,41.8
2018-09-12T03:06:05.908Z,41.9
2018-09-12T03:08:05.777Z,41.9
2018-09-12T03:10:08.018Z,41.8
2018-09-12T03:12:08.286Z,41.9
2018-09-12T03:14:08.071Z,41.6
2018-09-12T03:16:13.346Z,41.6
2018-09-12T03:18:07.845Z,41.8
2018-09-12T03:20:05.600Z,41.8
2018-09-12T03:22:05.327Z,41.6
2018-09-12T03:24:05.065Z,41.5
2018-09-12T03:26:05.900Z,41.6
2018-09-12T03:28:05.632Z,41.6
2018-09-12T03:30:07.850Z,41.6
2018-09-12T03:32:05.604Z,41.6
2018-09-12T03:34:05.368Z,41.6
2018-09-12T03:36:05.095Z,41.6
2018-09-12T03:38:05.849Z,41.6
2018-09-12T03:40:13.186Z,41.6
2018-09-12T03:42:05.901Z,41.6
2018-09-12T03:44:05.682Z,41.6
2018-09-12T03:46:05.475Z,41.6
2018-09-12T03:48:05.331Z,41.6
2018-09-12T03:50:05.294Z,41.4
2018-09-12T03:52:08.477Z,41.6
2018-09-12T03:54:05.325Z,41.6
2018-09-12T03:56:05.532Z,41.4
2018-09-12T03:58:05.789Z,41.4
2018-09-12T04:00:15.605Z,41.4
2018-09-12T04:02:05.319Z,41.4
2018-09-12T04:04:08.134Z,41.4
2018-09-12T04:06:05.832Z,41.4
2018-09-12T04:08:05.578Z,41.4
2018-09-12T04:10:07.825Z,41.4
2018-09-12T04:12:05.481Z,41.5
2018-09-12T04:14:05.252Z,41.3
2018-09-12T04:16:05.462Z,41.4
2018-09-12T04:18:05.347Z,41.4
2018-09-12T04:20:05.003Z,41.3
2018-09-12T04:22:05.658Z,41.3
2018-09-12T04:24:05.541Z,41.3
2018-09-12T04:26:09.360Z,41.3
2018-09-12T04:28:08.533Z,41.3
2018-09-12T04:30:05.341Z,41.4
2018-09-12T04:32:12.681Z,41.2
2018-09-12T04:34:05.381Z,41.2
2018-09-12T04:36:07.632Z,41.2
2018-09-12T04:38:05.358Z,41.1
2018-09-12T04:40:05.037Z,41.2
2018-09-12T04:42:05.734Z,41.2
2018-09-12T04:44:05.410Z,41.2
2018-09-12T04:46:05.145Z,41.2
2018-09-12T04:48:08.393Z,40.9
2018-09-12T04:50:05.194Z,41
2018-09-12T04:52:05.893Z,41.1
2018-09-12T04:54:05.290Z,41.3
2018-09-12T04:56:05.562Z,41.3
2018-09-12T04:58:05.295Z,41.5
2018-09-12T05:00:08.534Z,41.5
2018-09-12T05:02:05.419Z,41.5
2018-09-12T05:04:05.289Z,41.6
2018-09-12T05:06:08.022Z,41.3
2018-09-12T05:08:05.803Z,41.3
2018-09-12T05:10:05.690Z,41.2
2018-09-12T05:12:05.510Z,40.8
2018-09-12T05:14:05.175Z,41.1
2018-09-12T05:16:06.045Z,40.9
2018-09-12T05:18:05.334Z,41.1
2018-09-12T05:20:05.104Z,41
2018-09-12T05:22:13.378Z,41
2018-09-12T05:24:05.097Z,41
2018-09-12T05:26:07.815Z,41
2018-09-12T05:28:05.536Z,41
2018-09-12T05:30:05.223Z,41
2018-09-12T05:32:05.971Z,41
2018-09-12T05:34:05.582Z,41.2
2018-09-12T05:36:05.254Z,40.9
2018-09-12T05:38:06.030Z,41
2018-09-12T05:40:05.920Z,41.2
2018-09-12T05:42:05.564Z,41.1
2018-09-12T05:44:07.803Z,40.8
2018-09-12T05:46:05.649Z,41
2018-09-12T05:48:07.915Z,41.1
2018-09-12T05:50:05.670Z,41.1
2018-09-12T05:52:05.512Z,41
2018-09-12T05:54:05.183Z,41
2018-09-12T05:56:05.914Z,41
2018-09-12T05:58:05.648Z,40.9
2018-09-12T06:00:05.502Z,40.9
2018-09-12T06:02:05.296Z,41.1
2018-09-12T06:04:06.014Z,41
2018-09-12T06:06:05.768Z,41
2018-09-12T06:08:05.480Z,41
2018-09-12T06:10:05.709Z,40.9
2018-09-12T06:12:07.999Z,40.9
2018-09-12T06:14:05.884Z,40.9
2018-09-12T06:16:05.777Z,40.9
2018-09-12T06:18:05.679Z,40.9
2018-09-12T06:20:10.400Z,41.1
2018-09-12T06:22:07.632Z,41
2018-09-12T06:24:05.340Z,41
2018-09-12T06:26:05.588Z,41
2018-09-12T06:28:07.796Z,41.1
2018-09-12T06:30:05.459Z,40.9
2018-09-12T06:32:05.206Z,41.1
2018-09-12T06:34:08.432Z,41.1
2018-09-12T06:36:05.121Z,41.1
2018-09-12T06:38:13.217Z,41.1
2018-09-12T06:40:06.051Z,41.1
2018-09-12T06:42:05.724Z,41
2018-09-12T06:44:13.505Z,41
2018-09-12T06:46:05.234Z,41.1
2018-09-12T06:48:05.925Z,41.2
2018-09-12T06:50:05.651Z,41.1
2018-09-12T06:52:08.462Z,41.2
2018-09-12T06:54:05.319Z,41.2
2018-09-12T06:56:05.080Z,41.4
2018-09-12T06:58:05.739Z,41.4
2018-09-12T07:00:08.241Z,41.5
2018-09-12T07:02:12.657Z,41.6
2018-09-12T07:04:05.320Z,41.6
2018-09-12T07:06:06.029Z,41.5
2018-09-12T07:08:05.820Z,41.6
2018-09-12T07:10:05.768Z,41.9
2018-09-12T07:12:05.561Z,41.8
2018-09-12T07:14:05.333Z,41.8
2018-09-12T07:16:10.266Z,41.9
2018-09-12T07:18:07.710Z,42
2018-09-12T07:20:10.511Z,42.1
2018-09-12T07:22:05.264Z,42
2018-09-12T07:24:06.048Z,42.3
2018-09-12T07:26:10.880Z,42.5
2018-09-12T07:28:05.252Z,42.5
2018-09-12T07:30:05.936Z,42.5
2018-09-12T07:32:05.626Z,42.6
2018-09-12T07:34:10.402Z,42.6
2018-09-12T07:36:05.120Z,42.6
2018-09-12T07:38:05.857Z,42.8
2018-09-12T07:40:10.617Z,43
2018-09-12T07:42:05.337Z,42.9
2018-09-12T07:44:07.667Z,43.1
2018-09-12T07:46:05.981Z,43.1
2018-09-12T07:48:05.666Z,43.5
2018-09-12T07:50:08.429Z,43.6
2018-09-12T07:52:05.128Z,43.7
2018-09-12T07:54:05.843Z,43.9
2018-09-12T07:56:05.769Z,44
2018-09-12T07:58:05.884Z,44.1
2018-09-12T08:00:05.641Z,44.3
2018-09-12T08:02:10.720Z,44.4
2018-09-12T08:04:08.029Z,44.6
2018-09-12T08:06:05.757Z,44.6
2018-09-12T08:08:06.019Z,44.5
2018-09-12T08:10:05.724Z,44.7
2018-09-12T08:12:05.559Z,44.7
2018-09-12T08:14:10.540Z,44.9
2018-09-12T08:16:05.320Z,44.9
2018-09-12T08:18:05.242Z,45
2018-09-12T08:20:06.129Z,45.1
2018-09-12T08:22:05.803Z,45
2018-09-12T08:24:05.454Z,45.3
2018-09-12T08:26:05.264Z,45.3
2018-09-12T08:28:05.123Z,45.2
2018-09-12T08:30:05.821Z,45.2
2018-09-12T08:32:08.061Z,45.1
2018-09-12T08:34:05.743Z,45.3
2018-09-12T08:36:05.437Z,45.4
2018-09-12T08:38:05.156Z,45.3
2018-09-12T08:40:05.897Z,45.4
2018-09-12T08:42:05.690Z,45.3
2018-09-12T08:44:05.512Z,45.4
2018-09-12T08:46:07.756Z,45.4
2018-09-12T08:48:05.448Z,45.3
2018-09-12T08:50:05.156Z,45.5
2018-09-12T08:52:05.856Z,45.5
2018-09-12T08:54:05.197Z,45.4
2018-09-12T08:56:05.907Z,45.4
2018-09-12T08:58:05.626Z,45.4
2018-09-12T09:00:05.317Z,45.5
2018-09-12T09:02:05.062Z,45.6
2018-09-12T09:04:05.946Z,45.5
2018-09-12T09:06:05.915Z,45.4
2018-09-12T09:08:05.648Z,45.4
2018-09-12T09:10:05.366Z,45.3
2018-09-12T09:12:05.093Z,45.3
2018-09-12T09:14:08.347Z,45.3
2018-09-12T09:16:08.056Z,45.2
2018-09-12T09:18:05.955Z,45.2
2018-09-12T09:20:05.641Z,45.2
2018-09-12T09:22:13.493Z,45.3
2018-09-12T09:24:05.167Z,45.3
2018-09-12T09:26:06.236Z,45.1
2018-09-12T09:28:05.929Z,45.2
2018-09-12T09:30:05.651Z,45.1
2018-09-12T09:32:05.638Z,45
2018-09-12T09:34:05.597Z,45
2018-09-12T09:36:05.492Z,45.3
2018-09-12T09:38:05.706Z,45.2
2018-09-12T09:40:08.814Z,45
2018-09-12T09:42:10.619Z,44.9
2018-09-12T09:44:06.007Z,44.9
2018-09-12T09:46:05.069Z,44.9
2018-09-12T09:48:06.058Z,45
2018-09-12T09:50:05.614Z,44.9
2018-09-12T09:52:08.433Z,44.9
2018-09-12T09:54:05.112Z,44.9
2018-09-12T09:56:11.002Z,44.9
2018-09-12T09:58:05.728Z,44.9
2018-09-12T10:00:05.420Z,44.8
2018-09-12T10:02:05.251Z,44.8
2018-09-12T10:04:13.148Z,44.8
2018-09-12T10:06:05.386Z,44.8
2018-09-12T10:08:05.392Z,44.8
2018-09-12T10:10:05.365Z,44.7
2018-09-12T10:12:05.220Z,44.7
2018-09-12T10:14:05.563Z,44.8
2018-09-12T10:16:07.801Z,45
2018-09-12T10:18:05.746Z,45
2018-09-12T10:20:05.462Z,45.2
2018-09-12T10:22:05.176Z,45.1
2018-09-12T10:24:06.015Z,44.8
2018-09-12T10:26:07.998Z,45
2018-09-12T10:28:05.246Z,44.9
2018-09-12T10:30:05.922Z,44.8
2018-09-12T10:32:05.734Z,44.9
2018-09-12T10:34:05.437Z,44.9
2018-09-12T10:36:05.908Z,44.9
2018-09-12T10:38:10.681Z,44.8
2018-09-12T10:40:05.477Z,44.8
2018-09-12T10:42:05.080Z,44.9
2018-09-12T10:44:05.733Z,45
2018-09-12T10:46:10.606Z,45
2018-09-12T10:48:13.340Z,45.2
2018-09-12T10:50:05.680Z,45.1
2018-09-12T10:52:05.869Z,44.9
2018-09-12T10:54:08.444Z,45
2018-09-12T10:56:10.390Z,44.9
2018-09-12T10:58:07.661Z,44.8
2018-09-12T11:00:10.649Z,44.8
2018-09-12T11:02:10.447Z,44.9
2018-09-12T11:04:05.154Z,44.9
2018-09-12T11:06:07.866Z,44.9
2018-09-12T11:08:08.369Z,44.7
2018-09-12T11:10:07.022Z,44.8
2018-09-12T11:12:05.756Z,44.9
2018-09-12T11:14:11.500Z,44.9
2018-09-12T11:16:07.663Z,44.8
2018-09-12T11:18:05.428Z,45
2018-09-12T11:20:05.597Z,44.7
2018-09-12T11:22:14.012Z,45
2018-09-12T11:24:05.287Z,44.8
2018-09-12T11:26:08.018Z,44.9
2018-09-12T11:28:05.183Z,45.1
2018-09-12T11:30:09.269Z,45.1
2018-09-12T11:32:07.388Z,45
2018-09-12T11:34:08.181Z,44.9
2018-09-12T11:36:10.965Z,45
2018-09-12T11:38:13.038Z,45
2018-09-12T11:40:06.579Z,45.1
2018-09-12T11:42:08.832Z,45.1
2018-09-12T11:44:13.565Z,45
2018-09-12T11:46:05.029Z,45
2018-09-12T11:48:10.272Z,44.9
2018-09-12T11:50:06.039Z,44.9
2018-09-12T11:52:07.575Z,45
2018-09-12T11:54:20.801Z,45
2018-09-12T11:56:05.754Z,45.1
2018-09-12T11:58:06.009Z,45.1
2018-09-12T12:00:05.478Z,45.2
2018-09-12T12:02:10.640Z,45.1
2018-09-12T12:04:13.094Z,45.1
2018-09-12T12:06:06.158Z,45
2018-09-12T12:08:10.430Z,45.2
2018-09-12T12:10:05.093Z,45
2018-09-12T12:14:10.950Z,44.9
2018-09-12T12:16:10.655Z,44.9
2018-09-12T12:18:11.094Z,45
2018-09-12T12:20:05.260Z,44.8
2018-09-12T12:22:10.290Z,45
2018-09-12T12:24:05.805Z,45
2018-09-12T12:26:06.570Z,45
2018-09-12T12:28:05.513Z,44.9
2018-09-12T12:30:05.208Z,44.9
2018-09-12T12:32:06.040Z,44.9
2018-09-12T12:34:05.658Z,44.8
2018-09-12T12:36:06.991Z,44.8
2018-09-12T12:38:28.882Z,44.9
2018-09-12T12:40:09.501Z,44.8
2018-09-12T12:42:18.620Z,44.8
2018-09-12T12:44:05.085Z,44.8
2018-09-12T12:46:06.212Z,44.9
2018-09-12T12:48:05.761Z,44.7
2018-09-12T12:50:05.457Z,44.7
2018-09-12T12:52:06.167Z,44.6
2018-09-12T12:54:05.890Z,44.7
2018-09-12T12:56:05.815Z,44.6
2018-09-12T12:58:05.523Z,44.6
2018-09-12T13:00:05.305Z,44.6
2018-09-12T13:02:08.229Z,44.6
2018-09-12T13:04:07.543Z,44.6
2018-09-12T13:06:10.429Z,44.4
2018-09-12T13:08:05.153Z,44.4
2018-09-12T13:10:06.841Z,44.3
2018-09-12T13:12:10.394Z,44.2
2018-09-12T13:14:13.559Z,44.3
2018-09-12T13:16:07.545Z,44.3
2018-09-12T13:18:05.444Z,44.3
2018-09-12T13:20:13.015Z,44.2
2018-09-12T13:22:05.984Z,44.2
2018-09-12T13:24:05.636Z,44.2
2018-09-12T13:26:05.391Z,44.1
2018-09-12T13:28:05.097Z,44
2018-09-12T13:30:05.311Z,44
2018-09-12T13:32:08.590Z,43.8
2018-09-12T13:34:07.856Z,43.9
2018-09-12T13:36:07.804Z,44
2018-09-12T13:38:08.024Z,43.9
2018-09-12T13:40:08.358Z,43.6
2018-09-12T13:42:05.053Z,43.8
2018-09-12T13:44:10.754Z,43.7
2018-09-12T13:46:05.580Z,43.8
2018-09-12T13:48:07.904Z,43.6
2018-09-12T13:50:05.661Z,43.3
2018-09-12T13:52:05.989Z,43.5
2018-09-12T13:54:08.192Z,43.6
2018-09-12T13:56:05.932Z,43.6
2018-09-12T13:58:05.729Z,43.5
2018-09-12T14:00:07.990Z,43.6
2018-09-12T14:02:05.718Z,43.6
2018-09-12T14:04:05.456Z,43.6
2018-09-12T14:06:05.207Z,43.7
2018-09-12T14:08:05.440Z,43.8
2018-09-12T14:10:05.383Z,44.1
2018-09-12T14:12:05.159Z,44.1
2018-09-12T14:14:05.925Z,44.1
2018-09-12T14:16:08.596Z,44.5
2018-09-12T14:18:08.124Z,44.5
2018-09-12T14:20:08.224Z,44.4
2018-09-12T14:22:05.085Z,44.4
2018-09-12T14:24:05.848Z,44.6
2018-09-12T14:26:05.095Z,44.9
2018-09-12T14:28:05.799Z,45.3
2018-09-12T14:30:08.051Z,45.7
2018-09-12T14:32:11.104Z,45.8
2018-09-12T14:34:05.312Z,45.8
2018-09-12T14:36:07.037Z,45.6
2018-09-12T14:38:05.171Z,45.7
2018-09-12T14:40:08.677Z,46.1
2018-09-12T14:42:08.846Z,46.3
2018-09-12T14:44:05.889Z,46.1
2018-09-12T14:46:05.663Z,46.3
2018-09-12T14:48:05.748Z,46.2
2018-09-12T14:50:05.672Z,46.3
2018-09-12T14:52:06.834Z,46.3
2018-09-12T14:54:05.741Z,46.4
2018-09-12T14:56:05.700Z,46.4
2018-09-12T14:58:06.242Z,46.4
2018-09-12T15:00:07.693Z,46.4
2018-09-12T15:02:08.129Z,46.5
2018-09-12T15:04:08.408Z,46.7
2018-09-12T15:06:05.332Z,46.5
2018-09-12T15:08:04.998Z,46.5
2018-09-12T15:10:05.269Z,46.5
2018-09-12T15:12:05.962Z,46.4
2018-09-12T15:14:05.652Z,46.7
2018-09-12T15:16:15.661Z,46.7
2018-09-12T15:18:05.789Z,46.7
2018-09-12T15:20:05.493Z,46.6
2018-09-12T15:22:05.407Z,46.5
2018-09-12T15:24:05.291Z,46.6
2018-09-12T15:26:08.720Z,46.5
2018-09-12T15:28:06.009Z,46.5
2018-09-12T15:30:05.280Z,46.5
2018-09-12T15:32:13.764Z,46.4
2018-09-12T15:34:05.697Z,46.5
2018-09-12T15:36:05.420Z,46.4
2018-09-12T15:38:05.141Z,46.4
2018-09-12T15:40:08.468Z,46.2
2018-09-12T15:42:05.571Z,46.3
2018-09-12T15:44:05.311Z,46.2
2018-09-12T15:46:06.540Z,46.1
2018-09-12T15:48:06.410Z,46
2018-09-12T15:50:11.014Z,46
2018-09-12T15:52:05.761Z,46
2018-09-12T15:54:05.444Z,45.9
2018-09-12T15:56:10.188Z,45.8
2018-09-12T15:58:08.625Z,45.7
2018-09-12T16:00:07.601Z,45.6
2018-09-12T16:02:05.820Z,45.6
2018-09-12T16:04:05.851Z,45.5
2018-09-12T16:06:10.641Z,45.4
2018-09-12T16:08:05.381Z,45.3
2018-09-12T16:10:05.131Z,45.4
2018-09-12T16:12:05.835Z,45.3
2018-09-12T16:14:05.144Z,45.3
2018-09-12T16:16:05.891Z,45.3
2018-09-12T16:18:05.788Z,45.2
2018-09-12T16:20:05.509Z,45.2
2018-09-12T16:22:10.565Z,45.2
2018-09-12T16:24:05.265Z,45.1
2018-09-12T16:26:05.053Z,45.1
2018-09-12T16:28:05.846Z,45
2018-09-12T16:30:05.132Z,45.1
2018-09-12T16:32:05.871Z,45
2018-09-12T16:34:10.784Z,44.7
2018-09-12T16:36:05.519Z,44.7
2018-09-12T16:38:05.349Z,44.7
2018-09-12T16:40:08.241Z,44.7
2018-09-12T16:42:05.152Z,44.8
2018-09-12T16:44:05.835Z,44.6
2018-09-12T16:46:05.731Z,44.7
2018-09-12T16:48:08.006Z,44.7
2018-09-12T16:50:08.040Z,44.5
2018-09-12T16:52:05.801Z,44.5
2018-09-12T16:54:10.058Z,44.5
2018-09-12T16:56:05.415Z,44.5
2018-09-12T16:58:05.366Z,44.4
2018-09-12T17:00:15.188Z,44.5
2018-09-12T17:02:05.984Z,44.5
2018-09-12T17:04:10.830Z,44.4
2018-09-12T17:06:05.563Z,44.4
2018-09-12T17:08:10.540Z,44.4
2018-09-12T17:10:05.396Z,44.4
2018-09-12T17:12:05.073Z,44.3
2018-09-12T17:14:05.931Z,44.3
2018-09-12T17:16:05.795Z,44.3
2018-09-12T17:18:10.762Z,44.1
2018-09-12T17:20:05.752Z,44.3
2018-09-12T17:22:05.211Z,44.3
2018-09-12T17:24:06.277Z,44.1
2018-09-12T17:26:05.001Z,44.1
2018-09-12T17:28:08.210Z,44.3
2018-09-12T17:30:05.914Z,44.3
2018-09-12T17:32:05.590Z,44.1
2018-09-12T17:34:05.899Z,44.1
2018-09-12T17:36:05.129Z,44
2018-09-12T17:38:13.443Z,44
2018-09-12T17:40:05.178Z,43.8
2018-09-12T17:42:08.425Z,43.9
2018-09-12T17:44:10.687Z,43.9
2018-09-12T17:46:07.918Z,43.8
2018-09-12T17:48:05.618Z,43.8
2018-09-12T17:50:05.293Z,43.8
2018-09-12T17:52:06.032Z,43.8
2018-09-12T17:54:05.738Z,43.7
2018-09-12T17:56:08.186Z,43.6
2018-09-12T17:58:05.259Z,43.5
2018-09-12T18:00:05.967Z,43.6
2018-09-12T18:02:05.673Z,43.6
2018-09-12T18:04:05.468Z,43.6
2018-09-12T18:06:05.417Z,43.6
2018-09-12T18:08:05.220Z,43.4
2018-09-12T18:10:13.544Z,43.5
2018-09-12T18:12:05.218Z,43.5
2018-09-12T18:14:05.517Z,43.4
2018-09-12T18:16:06.156Z,43.5
2018-09-12T18:18:10.926Z,43.4
2018-09-12T18:20:05.626Z,43.4
2018-09-12T18:22:05.313Z,43.3
2018-09-12T18:24:06.058Z,43.3
2018-09-12T18:26:05.718Z,43.3
2018-09-12T18:28:05.437Z,43.1
2018-09-12T18:30:06.635Z,43.3
2018-09-12T18:32:05.371Z,43.3
2018-09-12T18:34:07.924Z,43.2
2018-09-12T18:36:08.525Z,43.3
2018-09-12T18:38:05.281Z,43.3
2018-09-12T18:40:06.018Z,43.2
2018-09-12T18:42:05.704Z,43.2
2018-09-12T18:44:05.465Z,43.2
2018-09-12T18:46:05.179Z,43.2
2018-09-12T18:48:05.877Z,43
2018-09-12T18:50:08.195Z,43
2018-09-12T18:52:08.396Z,43
2018-09-12T18:54:08.129Z,43
2018-09-12T18:56:10.189Z,43
2018-09-12T18:58:08.429Z,43
2018-09-12T19:00:05.160Z,43
2018-09-12T19:02:05.868Z,43
2018-09-12T19:04:08.193Z,43.3
2018-09-12T19:06:05.875Z,43.3
2018-09-12T19:08:08.182Z,43.5
2018-09-12T19:10:05.919Z,43.5
2018-09-12T19:12:05.627Z,43.6
2018-09-12T19:14:06.333Z,43.6
2018-09-12T19:16:07.580Z,43.7
2018-09-12T19:18:05.617Z,43.7
2018-09-12T19:20:05.723Z,43.9
2018-09-12T19:22:08.519Z,43.9
2018-09-12T19:24:05.301Z,43.9
2018-09-12T19:26:05.947Z,44.1
2018-09-12T19:28:05.645Z,44.1
2018-09-12T19:30:05.337Z,44
2018-09-12T19:32:05.134Z,44.1
2018-09-12T19:34:05.934Z,44.2
2018-09-12T19:36:06.673Z,44.2
2018-09-12T19:38:05.034Z,44.4
2018-09-12T19:40:08.367Z,44.6
2018-09-12T19:42:13.272Z,44.6
2018-09-12T19:44:05.997Z,44.6
2018-09-12T19:46:07.815Z,44.7
2018-09-12T19:48:05.197Z,44.7
2018-09-12T19:50:05.334Z,44.7
2018-09-12T19:52:05.121Z,44.5
2018-09-12T19:54:08.354Z,44.3
2018-09-12T19:56:05.085Z,44.5
2018-09-12T19:58:05.823Z,44.3
2018-09-12T20:00:06.487Z,44.1
2018-09-12T20:02:05.696Z,44.1
2018-09-12T20:04:05.436Z,44.1
2018-09-12T20:06:05.146Z,44.1
2018-09-12T20:08:05.850Z,44
2018-09-12T20:10:05.575Z,44
2018-09-12T20:12:05.820Z,44
2018-09-12T20:14:05.506Z,44
2018-09-12T20:16:05.849Z,43.9
2018-09-12T20:18:05.045Z,43.7
2018-09-12T20:20:05.768Z,43.9
2018-09-12T20:22:11.032Z,44
2018-09-12T20:24:08.275Z,44
2018-09-12T20:26:08.083Z,44
2018-09-12T20:28:08.382Z,44
2018-09-12T20:30:05.253Z,44
2018-09-12T20:32:05.932Z,44
2018-09-12T20:34:06.889Z,44.1
2018-09-12T20:36:05.012Z,44
2018-09-12T20:38:05.698Z,43.7
2018-09-12T20:40:05.377Z,43.3
2018-09-12T20:42:04.994Z,43.3
2018-09-12T20:44:05.711Z,43.2
2018-09-12T20:46:06.652Z,43.2
2018-09-12T20:48:05.973Z,43
2018-09-12T20:50:05.878Z,43
2018-09-12T20:52:08.331Z,43
2018-09-12T20:54:05.025Z,42.9
2018-09-12T20:56:05.700Z,42.9
2018-09-12T20:58:05.401Z,42.9
2018-09-12T21:00:08.165Z,42.7
2018-09-12T21:02:05.906Z,42.7
2018-09-12T21:04:05.430Z,42.7
2018-09-12T21:06:05.149Z,42.7
2018-09-12T21:08:05.932Z,42.6
2018-09-12T21:10:05.747Z,42.7
2018-09-12T21:12:05.470Z,42.6
2018-09-12T21:14:07.712Z,42.5
2018-09-12T21:16:05.521Z,42.5
2018-09-12T21:18:05.463Z,42.5
2018-09-12T21:20:07.793Z,42.5
2018-09-12T21:22:05.501Z,42.6
2018-09-12T21:24:05.198Z,42.5
2018-09-12T21:26:08.069Z,42.5
2018-09-12T21:28:08.898Z,42.5
2018-09-12T21:30:07.617Z,42.4
2018-09-12T21:32:05.326Z,42.4
2018-09-12T21:34:05.077Z,42.5
2018-09-12T21:36:05.771Z,42.4
2018-09-12T21:38:18.080Z,42.4
2018-09-12T21:40:08.308Z,42.3
2018-09-12T21:42:05.980Z,42.1
2018-09-12T21:44:05.692Z,42.2
2018-09-12T21:46:05.449Z,42.2
2018-09-12T21:48:05.175Z,42.1
2018-09-12T21:50:05.857Z,42.2
2018-09-12T21:52:05.582Z,42
2018-09-12T21:54:05.286Z,42.1
2018-09-12T21:56:05.988Z,42.1
2018-09-12T21:58:13.156Z,42
2018-09-12T22:00:06.106Z,42
2018-09-12T22:02:05.399Z,42.1
2018-09-12T22:04:05.302Z,42.1
2018-09-12T22:06:05.195Z,42.2
2018-09-12T22:08:06.152Z,42.2
2018-09-12T22:10:05.798Z,42.3
2018-09-12T22:12:05.587Z,42.1
2018-09-12T22:14:07.760Z,42.2
2018-09-12T22:16:05.553Z,42.2
2018-09-12T22:18:08.059Z,42.4
2018-09-12T22:20:05.346Z,42.4
2018-09-12T22:22:05.067Z,42.4
2018-09-12T22:24:05.746Z,42.2
2018-09-12T22:26:05.423Z,42.4
2018-09-12T22:28:08.013Z,42.2
2018-09-12T22:30:05.763Z,42.1
2018-09-12T22:32:05.521Z,42.4
2018-09-12T22:34:07.875Z,42.2
2018-09-12T22:36:05.103Z,42.2
2018-09-12T22:38:06.016Z,42.2
2018-09-12T22:40:05.694Z,42.3
2018-09-12T22:42:05.370Z,42.2
2018-09-12T22:44:05.104Z,42.3
2018-09-12T22:46:05.887Z,42.3
2018-09-12T22:48:05.586Z,42.4
2018-09-12T22:50:05.283Z,42.4
2018-09-12T22:52:05.956Z,42.4
2018-09-12T22:54:08.212Z,42.3
2018-09-12T22:56:05.943Z,42.3
2018-09-12T22:58:05.659Z,42.3
2018-09-12T23:00:05.366Z,42.3
2018-09-12T23:02:05.103Z,42.4
2018-09-12T23:04:05.838Z,42.4
2018-09-12T23:06:12.618Z,42.3
2018-09-12T23:08:05.617Z,42.3
2018-09-12T23:10:11.160Z,42.4
2018-09-12T23:12:05.187Z,42.4
2018-09-12T23:14:05.876Z,42.4
2018-09-12T23:16:05.758Z,42.4
2018-09-12T23:18:05.669Z,42.5
2018-09-12T23:20:05.381Z,42.3
2018-09-12T23:22:05.114Z,42.3
2018-09-12T23:24:05.784Z,42.6
2018-09-12T23:26:05.489Z,42.4
2018-09-12T23:28:05.222Z,42.4
2018-09-12T23:30:08.454Z,42.5
2018-09-12T23:32:05.176Z,42.6
2018-09-12T23:34:05.917Z,42.6
2018-09-12T23:36:05.606Z,42.6
2018-09-12T23:38:05.863Z,42.7
2018-09-12T23:40:08.134Z,42.7
2018-09-12T23:42:05.783Z,42.8
2018-09-12T23:44:08.022Z,42.6
2018-09-12T23:46:05.299Z,42.8
2018-09-12T23:48:06.005Z,42.8
2018-09-12T23:50:05.770Z,42.6
2018-09-12T23:52:06.109Z,42.6
2018-09-12T23:54:10.871Z,42.7
2018-09-12T23:56:08.071Z,42.7
2018-09-12T23:58:10.833Z,42.8
